sensor_id;sensor_type;location;lat;lon;timestamp;P1;durP1;ratioP1;P2;durP2;ratioP2
21038;SDS011;10678;51.002;4.786;2023-02-11T00:01:43;20.97;;;7.53;;
21038;SDS011;10678;51.002;4.786;2023-02-11T00:04:08;18.23;;;7.30;;
21038;SDS011;10678;51.002;4.786;2023-02-11T00:06:34;17.00;;;6.50;;
21038;SDS011;10678;51.002;4.786;2023-02-11T00:09:00;20.07;;;7.97;;
21038;SDS011;10678;51.002;4.786;2023-02-11T00:11:26;17.73;;;7.20;;
21038;SDS011;10678;51.002;4.786;2023-02-11T00:13:58;17.83;;;7.23;;
21038;SDS011;10678;51.002;4.786;2023-02-11T00:16:26;12.30;;;6.97;;
21038;SDS011;10678;51.002;4.786;2023-02-11T00:18:53;19.53;;;7.17;;
21038;SDS011;10678;51.002;4.786;2023-02-11T00:21:20;20.60;;;7.63;;
21038;SDS011;10678;51.002;4.786;2023-02-11T00:23:47;18.97;;;6.70;;
21038;SDS011;10678;51.002;4.786;2023-02-11T00:26:14;18.73;;;7.00;;
21038;SDS011;10678;51.002;4.786;2023-02-11T00:28:41;15.37;;;7.00;;
21038;SDS011;10678;51.002;4.786;2023-02-11T00:31:07;14.67;;;6.73;;
21038;SDS011;10678;51.002;4.786;2023-02-11T00:33:33;17.53;;;6.80;;
21038;SDS011;10678;51.002;4.786;2023-02-11T00:36:02;16.97;;;7.10;;
21038;SDS011;10678;51.002;4.786;2023-02-11T00:38:29;21.27;;;7.50;;
21038;SDS011;10678;51.002;4.786;2023-02-11T00:40:54;18.13;;;6.53;;
21038;SDS011;10678;51.002;4.786;2023-02-11T00:43:20;21.17;;;7.53;;
21038;SDS011;10678;51.002;4.786;2023-02-11T00:45:46;22.00;;;7.23;;
21038;SDS011;10678;51.002;4.786;2023-02-11T00:48:11;23.13;;;7.53;;
21038;SDS011;10678;51.002;4.786;2023-02-11T00:50:37;16.17;;;6.53;;
21038;SDS011;10678;51.002;4.786;2023-02-11T00:53:02;16.60;;;6.20;;
21038;SDS011;10678;51.002;4.786;2023-02-11T00:55:28;21.03;;;6.43;;
21038;SDS011;10678;51.002;4.786;2023-02-11T00:57:53;17.13;;;8.10;;
21038;SDS011;10678;51.002;4.786;2023-02-11T01:00:19;17.93;;;6.87;;
21038;SDS011;10678;51.002;4.786;2023-02-11T01:02:46;20.63;;;7.87;;
21038;SDS011;10678;51.002;4.786;2023-02-11T01:05:11;16.20;;;6.90;;
21038;SDS011;10678;51.002;4.786;2023-02-11T01:07:37;19.67;;;7.47;;
21038;SDS011;10678;51.002;4.786;2023-02-11T01:10:03;16.60;;;6.07;;
21038;SDS011;10678;51.002;4.786;2023-02-11T01:12:29;16.37;;;5.43;;
21038;SDS011;10678;51.002;4.786;2023-02-11T01:14:54;16.47;;;6.10;;
21038;SDS011;10678;51.002;4.786;2023-02-11T01:17:20;19.50;;;6.43;;
21038;SDS011;10678;51.002;4.786;2023-02-11T01:19:45;15.03;;;5.60;;
21038;SDS011;10678;51.002;4.786;2023-02-11T01:22:11;11.30;;;5.57;;
21038;SDS011;10678;51.002;4.786;2023-02-11T01:24:36;16.87;;;6.23;;
21038;SDS011;10678;51.002;4.786;2023-02-11T01:27:02;18.97;;;5.80;;
21038;SDS011;10678;51.002;4.786;2023-02-11T01:29:28;13.53;;;5.73;;
21038;SDS011;10678;51.002;4.786;2023-02-11T01:31:53;15.30;;;5.40;;
21038;SDS011;10678;51.002;4.786;2023-02-11T01:34:19;17.63;;;5.37;;
21038;SDS011;10678;51.002;4.786;2023-02-11T01:36:45;15.53;;;5.70;;
21038;SDS011;10678;51.002;4.786;2023-02-11T01:39:10;15.37;;;5.47;;
21038;SDS011;10678;51.002;4.786;2023-02-11T01:41:36;20.13;;;5.90;;
21038;SDS011;10678;51.002;4.786;2023-02-11T01:44:25;20.80;;;6.17;;
21038;SDS011;10678;51.002;4.786;2023-02-11T01:46:57;20.03;;;6.00;;
21038;SDS011;10678;51.002;4.786;2023-02-11T01:49:27;12.37;;;5.27;;
21038;SDS011;10678;51.002;4.786;2023-02-11T01:52:02;17.10;;;6.23;;
21038;SDS011;10678;51.002;4.786;2023-02-11T01:54:34;22.07;;;7.00;;
21038;SDS011;10678;51.002;4.786;2023-02-11T01:57:21;12.27;;;5.27;;
21038;SDS011;10678;51.002;4.786;2023-02-11T02:02:39;16.00;;;6.13;;
21038;SDS011;10678;51.002;4.786;2023-02-11T02:07:45;18.13;;;6.53;;
21038;SDS011;10678;51.002;4.786;2023-02-11T02:10:33;13.27;;;5.00;;
21038;SDS011;10678;51.002;4.786;2023-02-11T02:13:00;22.27;;;6.53;;
21038;SDS011;10678;51.002;4.786;2023-02-11T02:15:29;18.20;;;6.30;;
21038;SDS011;10678;51.002;4.786;2023-02-11T02:29:21;24.40;;;5.70;;
21038;SDS011;10678;51.002;4.786;2023-02-11T02:32:14;14.27;;;6.17;;
21038;SDS011;10678;51.002;4.786;2023-02-11T02:38:07;20.23;;;6.33;;
21038;SDS011;10678;51.002;4.786;2023-02-11T02:43:09;12.43;;;5.07;;
21038;SDS011;10678;51.002;4.786;2023-02-11T02:45:35;14.07;;;6.17;;
21038;SDS011;10678;51.002;4.786;2023-02-11T02:48:01;18.07;;;6.30;;
21038;SDS011;10678;51.002;4.786;2023-02-11T02:50:30;20.67;;;7.43;;
21038;SDS011;10678;51.002;4.786;2023-02-11T02:58:40;19.93;;;7.70;;
21038;SDS011;10678;51.002;4.786;2023-02-11T03:01:20;17.07;;;5.50;;
21038;SDS011;10678;51.002;4.786;2023-02-11T03:03:57;15.63;;;5.90;;
21038;SDS011;10678;51.002;4.786;2023-02-11T03:09:11;15.43;;;5.70;;
21038;SDS011;10678;51.002;4.786;2023-02-11T03:11:38;17.73;;;5.53;;
21038;SDS011;10678;51.002;4.786;2023-02-11T03:14:05;16.07;;;5.87;;
21038;SDS011;10678;51.002;4.786;2023-02-11T03:16:34;16.70;;;5.93;;
21038;SDS011;10678;51.002;4.786;2023-02-11T03:19:14;16.83;;;5.47;;
21038;SDS011;10678;51.002;4.786;2023-02-11T03:21:44;14.40;;;6.00;;
21038;SDS011;10678;51.002;4.786;2023-02-11T03:24:17;15.80;;;5.90;;
21038;SDS011;10678;51.002;4.786;2023-02-11T03:26:49;14.73;;;6.33;;
21038;SDS011;10678;51.002;4.786;2023-02-11T03:29:27;15.47;;;5.30;;
21038;SDS011;10678;51.002;4.786;2023-02-11T03:34:55;13.90;;;6.15;;
21038;SDS011;10678;51.002;4.786;2023-02-11T03:37:37;15.30;;;5.20;;
21038;SDS011;10678;51.002;4.786;2023-02-11T03:42:34;14.63;;;5.53;;
21038;SDS011;10678;51.002;4.786;2023-02-11T03:45:07;13.50;;;6.10;;
21038;SDS011;10678;51.002;4.786;2023-02-11T03:47:35;17.27;;;6.70;;
21038;SDS011;10678;51.002;4.786;2023-02-11T03:50:04;13.07;;;6.03;;
21038;SDS011;10678;51.002;4.786;2023-02-11T03:52:31;13.97;;;5.60;;
21038;SDS011;10678;51.002;4.786;2023-02-11T03:54:59;13.90;;;5.77;;
21038;SDS011;10678;51.002;4.786;2023-02-11T03:57:29;21.50;;;6.00;;
21038;SDS011;10678;51.002;4.786;2023-02-11T03:59:58;17.23;;;6.45;;
21038;SDS011;10678;51.002;4.786;2023-02-11T04:02:25;16.93;;;6.30;;
21038;SDS011;10678;51.002;4.786;2023-02-11T04:04:55;13.90;;;5.93;;
21038;SDS011;10678;51.002;4.786;2023-02-11T04:07:21;21.63;;;6.07;;
21038;SDS011;10678;51.002;4.786;2023-02-11T04:09:47;19.07;;;6.57;;
21038;SDS011;10678;51.002;4.786;2023-02-11T04:12:12;21.90;;;6.67;;
21038;SDS011;10678;51.002;4.786;2023-02-11T04:14:38;15.27;;;6.47;;
21038;SDS011;10678;51.002;4.786;2023-02-11T04:17:03;24.87;;;6.20;;
21038;SDS011;10678;51.002;4.786;2023-02-11T04:19:29;15.27;;;5.75;;
21038;SDS011;10678;51.002;4.786;2023-02-11T04:21:54;16.60;;;5.95;;
21038;SDS011;10678;51.002;4.786;2023-02-11T04:24:20;17.75;;;7.57;;
21038;SDS011;10678;51.002;4.786;2023-02-11T04:26:46;15.67;;;6.80;;
21038;SDS011;10678;51.002;4.786;2023-02-11T04:29:11;17.93;;;6.07;;
21038;SDS011;10678;51.002;4.786;2023-02-11T04:31:37;19.03;;;6.33;;
21038;SDS011;10678;51.002;4.786;2023-02-11T04:34:02;17.73;;;7.03;;
21038;SDS011;10678;51.002;4.786;2023-02-11T04:36:28;17.17;;;6.97;;
21038;SDS011;10678;51.002;4.786;2023-02-11T04:38:54;22.33;;;6.63;;
21038;SDS011;10678;51.002;4.786;2023-02-11T04:41:19;19.50;;;7.13;;
21038;SDS011;10678;51.002;4.786;2023-02-11T04:43:45;16.93;;;7.13;;
21038;SDS011;10678;51.002;4.786;2023-02-11T04:46:10;18.40;;;7.50;;
21038;SDS011;10678;51.002;4.786;2023-02-11T04:48:36;16.40;;;7.13;;
21038;SDS011;10678;51.002;4.786;2023-02-11T04:51:02;14.18;;;6.80;;
21038;SDS011;10678;51.002;4.786;2023-02-11T04:53:27;21.00;;;7.53;;
21038;SDS011;10678;51.002;4.786;2023-02-11T04:55:53;15.60;;;7.87;;
21038;SDS011;10678;51.002;4.786;2023-02-11T04:58:19;19.40;;;7.60;;
21038;SDS011;10678;51.002;4.786;2023-02-11T05:00:44;19.33;;;9.03;;
21038;SDS011;10678;51.002;4.786;2023-02-11T05:03:11;22.23;;;8.00;;
21038;SDS011;10678;51.002;4.786;2023-02-11T05:05:37;16.47;;;7.53;;
21038;SDS011;10678;51.002;4.786;2023-02-11T05:08:04;21.80;;;8.23;;
21038;SDS011;10678;51.002;4.786;2023-02-11T05:10:31;24.55;;;9.15;;
21038;SDS011;10678;51.002;4.786;2023-02-11T05:12:57;27.93;;;8.80;;
21038;SDS011;10678;51.002;4.786;2023-02-11T05:15:22;20.93;;;9.43;;
21038;SDS011;10678;51.002;4.786;2023-02-11T05:17:48;29.48;;;10.68;;
21038;SDS011;10678;51.002;4.786;2023-02-11T05:20:14;22.77;;;9.25;;
21038;SDS011;10678;51.002;4.786;2023-02-11T05:22:39;26.02;;;10.05;;
21038;SDS011;10678;51.002;4.786;2023-02-11T05:25:05;20.10;;;9.43;;
21038;SDS011;10678;51.002;4.786;2023-02-11T05:27:31;21.33;;;8.60;;
21038;SDS011;10678;51.002;4.786;2023-02-11T05:29:56;20.90;;;9.30;;
21038;SDS011;10678;51.002;4.786;2023-02-11T05:32:22;22.50;;;10.30;;
21038;SDS011;10678;51.002;4.786;2023-02-11T05:34:48;17.20;;;8.83;;
21038;SDS011;10678;51.002;4.786;2023-02-11T05:37:13;21.53;;;8.90;;
21038;SDS011;10678;51.002;4.786;2023-02-11T05:39:39;17.73;;;8.50;;
21038;SDS011;10678;51.002;4.786;2023-02-11T05:42:05;16.73;;;9.20;;
21038;SDS011;10678;51.002;4.786;2023-02-11T05:44:31;25.90;;;10.27;;
21038;SDS011;10678;51.002;4.786;2023-02-11T05:46:56;24.58;;;10.75;;
21038;SDS011;10678;51.002;4.786;2023-02-11T05:49:22;20.47;;;9.97;;
21038;SDS011;10678;51.002;4.786;2023-02-11T05:51:47;22.37;;;10.60;;
21038;SDS011;10678;51.002;4.786;2023-02-11T05:54:13;18.93;;;11.10;;
21038;SDS011;10678;51.002;4.786;2023-02-11T05:56:39;24.20;;;11.17;;
21038;SDS011;10678;51.002;4.786;2023-02-11T05:59:05;19.57;;;10.50;;
21038;SDS011;10678;51.002;4.786;2023-02-11T06:01:30;19.13;;;9.77;;
21038;SDS011;10678;51.002;4.786;2023-02-11T06:03:56;18.75;;;9.38;;
21038;SDS011;10678;51.002;4.786;2023-02-11T06:06:21;26.52;;;10.30;;
21038;SDS011;10678;51.002;4.786;2023-02-11T06:08:47;23.80;;;11.70;;
21038;SDS011;10678;51.002;4.786;2023-02-11T06:11:13;15.97;;;9.20;;
21038;SDS011;10678;51.002;4.786;2023-02-11T06:13:39;26.13;;;10.10;;
21038;SDS011;10678;51.002;4.786;2023-02-11T06:16:05;18.97;;;10.20;;
21038;SDS011;10678;51.002;4.786;2023-02-11T06:18:30;29.13;;;11.57;;
21038;SDS011;10678;51.002;4.786;2023-02-11T06:20:57;25.20;;;10.83;;
21038;SDS011;10678;51.002;4.786;2023-02-11T06:23:23;23.05;;;10.38;;
21038;SDS011;10678;51.002;4.786;2023-02-11T06:25:49;20.83;;;11.02;;
21038;SDS011;10678;51.002;4.786;2023-02-11T06:28:16;20.30;;;10.50;;
21038;SDS011;10678;51.002;4.786;2023-02-11T06:30:42;22.33;;;10.23;;
21038;SDS011;10678;51.002;4.786;2023-02-11T06:33:07;26.27;;;10.67;;
21038;SDS011;10678;51.002;4.786;2023-02-11T06:35:33;29.30;;;11.43;;
21038;SDS011;10678;51.002;4.786;2023-02-11T06:37:59;21.20;;;11.25;;
21038;SDS011;10678;51.002;4.786;2023-02-11T06:40:25;23.23;;;11.43;;
21038;SDS011;10678;51.002;4.786;2023-02-11T06:42:51;24.50;;;11.83;;
21038;SDS011;10678;51.002;4.786;2023-02-11T06:45:17;20.80;;;10.67;;
21038;SDS011;10678;51.002;4.786;2023-02-11T06:47:44;31.30;;;11.20;;
21038;SDS011;10678;51.002;4.786;2023-02-11T06:50:11;23.33;;;11.90;;
21038;SDS011;10678;51.002;4.786;2023-02-11T06:52:38;26.58;;;12.55;;
21038;SDS011;10678;51.002;4.786;2023-02-11T06:55:03;24.13;;;12.53;;
21038;SDS011;10678;51.002;4.786;2023-02-11T06:57:30;23.90;;;12.27;;
21038;SDS011;10678;51.002;4.786;2023-02-11T06:59:56;25.85;;;12.70;;
21038;SDS011;10678;51.002;4.786;2023-02-11T07:02:21;26.23;;;13.25;;
21038;SDS011;10678;51.002;4.786;2023-02-11T07:04:47;30.00;;;14.52;;
21038;SDS011;10678;51.002;4.786;2023-02-11T07:07:13;30.42;;;14.15;;
21038;SDS011;10678;51.002;4.786;2023-02-11T07:09:38;23.43;;;12.27;;
21038;SDS011;10678;51.002;4.786;2023-02-11T07:12:04;30.67;;;13.98;;
21038;SDS011;10678;51.002;4.786;2023-02-11T07:14:30;29.30;;;13.45;;
21038;SDS011;10678;51.002;4.786;2023-02-11T07:16:55;26.00;;;14.35;;
21038;SDS011;10678;51.002;4.786;2023-02-11T07:19:21;27.67;;;13.43;;
21038;SDS011;10678;51.002;4.786;2023-02-11T07:21:47;31.42;;;14.55;;
21038;SDS011;10678;51.002;4.786;2023-02-11T07:24:13;31.33;;;14.52;;
21038;SDS011;10678;51.002;4.786;2023-02-11T07:26:38;31.33;;;14.02;;
21038;SDS011;10678;51.002;4.786;2023-02-11T07:29:04;25.97;;;14.03;;
21038;SDS011;10678;51.002;4.786;2023-02-11T07:31:30;31.60;;;15.20;;
21038;SDS011;10678;51.002;4.786;2023-02-11T07:33:58;31.75;;;14.95;;
21038;SDS011;10678;51.002;4.786;2023-02-11T07:36:24;36.53;;;15.48;;
21038;SDS011;10678;51.002;4.786;2023-02-11T07:38:51;35.17;;;14.55;;
21038;SDS011;10678;51.002;4.786;2023-02-11T07:41:18;33.60;;;14.30;;
21038;SDS011;10678;51.002;4.786;2023-02-11T07:43:46;36.90;;;15.25;;
21038;SDS011;10678;51.002;4.786;2023-02-11T07:46:16;37.47;;;14.70;;
21038;SDS011;10678;51.002;4.786;2023-02-11T07:48:43;30.38;;;13.18;;
21038;SDS011;10678;51.002;4.786;2023-02-11T07:51:10;29.90;;;15.37;;
21038;SDS011;10678;51.002;4.786;2023-02-11T07:53:44;31.70;;;15.32;;
21038;SDS011;10678;51.002;4.786;2023-02-11T07:56:11;29.08;;;14.30;;
21038;SDS011;10678;51.002;4.786;2023-02-11T07:58:38;31.77;;;14.82;;
21038;SDS011;10678;51.002;4.786;2023-02-11T08:01:07;29.83;;;15.27;;
21038;SDS011;10678;51.002;4.786;2023-02-11T08:03:34;31.27;;;14.15;;
21038;SDS011;10678;51.002;4.786;2023-02-11T08:06:07;29.30;;;15.27;;
21038;SDS011;10678;51.002;4.786;2023-02-11T08:08:34;34.35;;;15.35;;
21038;SDS011;10678;51.002;4.786;2023-02-11T08:13:36;28.05;;;15.63;;
21038;SDS011;10678;51.002;4.786;2023-02-11T08:16:02;27.60;;;14.93;;
21038;SDS011;10678;51.002;4.786;2023-02-11T08:18:29;41.05;;;17.17;;
21038;SDS011;10678;51.002;4.786;2023-02-11T08:20:56;34.55;;;16.95;;
21038;SDS011;10678;51.002;4.786;2023-02-11T08:23:27;41.50;;;17.77;;
21038;SDS011;10678;51.002;4.786;2023-02-11T08:25:52;30.40;;;15.40;;
21038;SDS011;10678;51.002;4.786;2023-02-11T08:28:18;41.33;;;16.95;;
21038;SDS011;10678;51.002;4.786;2023-02-11T08:30:43;34.15;;;17.13;;
21038;SDS011;10678;51.002;4.786;2023-02-11T08:33:09;34.85;;;16.63;;
21038;SDS011;10678;51.002;4.786;2023-02-11T08:35:35;33.75;;;16.55;;
21038;SDS011;10678;51.002;4.786;2023-02-11T08:38:02;31.20;;;16.83;;
21038;SDS011;10678;51.002;4.786;2023-02-11T08:40:28;29.83;;;17.52;;
21038;SDS011;10678;51.002;4.786;2023-02-11T08:42:54;33.53;;;17.63;;
21038;SDS011;10678;51.002;4.786;2023-02-11T08:45:19;40.72;;;17.48;;
21038;SDS011;10678;51.002;4.786;2023-02-11T08:47:45;37.45;;;17.70;;
21038;SDS011;10678;51.002;4.786;2023-02-11T08:50:10;32.80;;;17.48;;
21038;SDS011;10678;51.002;4.786;2023-02-11T08:52:36;42.78;;;19.30;;
21038;SDS011;10678;51.002;4.786;2023-02-11T08:55:02;37.88;;;20.33;;
21038;SDS011;10678;51.002;4.786;2023-02-11T08:57:28;39.00;;;18.85;;
21038;SDS011;10678;51.002;4.786;2023-02-11T08:59:53;40.35;;;19.50;;
21038;SDS011;10678;51.002;4.786;2023-02-11T09:02:19;39.08;;;20.45;;
21038;SDS011;10678;51.002;4.786;2023-02-11T09:04:45;36.92;;;19.88;;
21038;SDS011;10678;51.002;4.786;2023-02-11T09:07:10;39.00;;;18.92;;
21038;SDS011;10678;51.002;4.786;2023-02-11T09:09:37;37.47;;;19.92;;
21038;SDS011;10678;51.002;4.786;2023-02-11T09:12:02;39.75;;;19.73;;
21038;SDS011;10678;51.002;4.786;2023-02-11T09:14:28;44.17;;;19.52;;
21038;SDS011;10678;51.002;4.786;2023-02-11T09:16:54;45.92;;;20.48;;
21038;SDS011;10678;51.002;4.786;2023-02-11T09:19:19;41.42;;;19.13;;
21038;SDS011;10678;51.002;4.786;2023-02-11T09:21:45;44.15;;;20.05;;
21038;SDS011;10678;51.002;4.786;2023-02-11T09:24:11;41.42;;;19.83;;
21038;SDS011;10678;51.002;4.786;2023-02-11T09:26:36;39.75;;;20.23;;
21038;SDS011;10678;51.002;4.786;2023-02-11T09:29:02;40.92;;;20.15;;
21038;SDS011;10678;51.002;4.786;2023-02-11T09:31:29;41.25;;;19.65;;
21038;SDS011;10678;51.002;4.786;2023-02-11T09:33:57;51.45;;;21.75;;
21038;SDS011;10678;51.002;4.786;2023-02-11T09:36:29;39.33;;;19.80;;
21038;SDS011;10678;51.002;4.786;2023-02-11T09:38:57;37.25;;;20.02;;
21038;SDS011;10678;51.002;4.786;2023-02-11T09:44:20;38.75;;;20.92;;
21038;SDS011;10678;51.002;4.786;2023-02-11T09:46:57;40.42;;;20.90;;
21038;SDS011;10678;51.002;4.786;2023-02-11T09:49:44;39.40;;;20.85;;
21038;SDS011;10678;51.002;4.786;2023-02-11T09:54:55;40.45;;;20.13;;
21038;SDS011;10678;51.002;4.786;2023-02-11T09:57:27;47.90;;;23.90;;
21038;SDS011;10678;51.002;4.786;2023-02-11T09:59:57;39.90;;;19.88;;
21038;SDS011;10678;51.002;4.786;2023-02-11T10:02:28;46.20;;;22.13;;
21038;SDS011;10678;51.002;4.786;2023-02-11T10:07:45;43.30;;;20.95;;
21038;SDS011;10678;51.002;4.786;2023-02-11T10:10:37;44.75;;;20.95;;
21038;SDS011;10678;51.002;4.786;2023-02-11T10:21:14;42.38;;;22.13;;
21038;SDS011;10678;51.002;4.786;2023-02-11T10:23:43;39.40;;;21.80;;
21038;SDS011;10678;51.002;4.786;2023-02-11T10:26:14;50.50;;;22.60;;
21038;SDS011;10678;51.002;4.786;2023-02-11T10:28:42;49.50;;;23.02;;
21038;SDS011;10678;51.002;4.786;2023-02-11T10:31:18;47.70;;;23.67;;
21038;SDS011;10678;51.002;4.786;2023-02-11T10:33:50;43.72;;;22.70;;
21038;SDS011;10678;51.002;4.786;2023-02-11T10:36:23;47.80;;;23.83;;
21038;SDS011;10678;51.002;4.786;2023-02-11T10:38:52;51.00;;;22.85;;
21038;SDS011;10678;51.002;4.786;2023-02-11T10:41:29;49.17;;;23.05;;
21038;SDS011;10678;51.002;4.786;2023-02-11T10:44:02;50.97;;;23.50;;
21038;SDS011;10678;51.002;4.786;2023-02-11T10:46:31;50.40;;;24.00;;
21038;SDS011;10678;51.002;4.786;2023-02-11T10:49:00;52.03;;;24.60;;
21038;SDS011;10678;51.002;4.786;2023-02-11T10:51:28;41.95;;;22.65;;
21038;SDS011;10678;51.002;4.786;2023-02-11T10:56:31;54.97;;;25.50;;
21038;SDS011;10678;51.002;4.786;2023-02-11T10:59:13;55.60;;;23.48;;
21038;SDS011;10678;51.002;4.786;2023-02-11T11:01:40;56.50;;;24.35;;
21038;SDS011;10678;51.002;4.786;2023-02-11T11:06:56;45.50;;;23.75;;
21038;SDS011;10678;51.002;4.786;2023-02-11T11:09:48;48.33;;;24.00;;
21038;SDS011;10678;51.002;4.786;2023-02-11T11:12:36;48.58;;;24.85;;
21038;SDS011;10678;51.002;4.786;2023-02-11T11:17:38;54.95;;;24.65;;
21038;SDS011;10678;51.002;4.786;2023-02-11T11:22:48;52.03;;;24.60;;
21038;SDS011;10678;51.002;4.786;2023-02-11T11:25:26;58.53;;;25.23;;
21038;SDS011;10678;51.002;4.786;2023-02-11T11:27:57;53.35;;;26.25;;
21038;SDS011;10678;51.002;4.786;2023-02-11T11:30:38;50.75;;;25.35;;
21038;SDS011;10678;51.002;4.786;2023-02-11T11:33:14;49.85;;;24.83;;
21038;SDS011;10678;51.002;4.786;2023-02-11T11:35:51;49.83;;;25.85;;
21038;SDS011;10678;51.002;4.786;2023-02-11T11:38:22;53.33;;;26.10;;
21038;SDS011;10678;51.002;4.786;2023-02-11T11:40:54;55.78;;;24.17;;
21038;SDS011;10678;51.002;4.786;2023-02-11T11:43:37;52.95;;;25.10;;
21038;SDS011;10678;51.002;4.786;2023-02-11T11:46:03;53.40;;;27.52;;
21038;SDS011;10678;51.002;4.786;2023-02-11T11:48:38;48.53;;;25.90;;
21038;SDS011;10678;51.002;4.786;2023-02-11T11:51:09;56.70;;;25.70;;
21038;SDS011;10678;51.002;4.786;2023-02-11T11:53:44;46.28;;;25.67;;
21038;SDS011;10678;51.002;4.786;2023-02-11T11:56:20;53.10;;;24.90;;
21038;SDS011;10678;51.002;4.786;2023-02-11T11:58:48;48.33;;;23.85;;
21038;SDS011;10678;51.002;4.786;2023-02-11T12:01:18;47.55;;;25.67;;
21038;SDS011;10678;51.002;4.786;2023-02-11T12:04:12;51.17;;;25.95;;
21038;SDS011;10678;51.002;4.786;2023-02-11T12:18:32;47.17;;;24.38;;
21038;SDS011;10678;51.002;4.786;2023-02-11T12:27:37;47.40;;;26.55;;
21038;SDS011;10678;51.002;4.786;2023-02-11T12:32:48;56.30;;;25.42;;
21038;SDS011;10678;51.002;4.786;2023-02-11T12:35:30;44.35;;;23.60;;
21038;SDS011;10678;51.002;4.786;2023-02-11T12:38:29;51.35;;;24.17;;
21038;SDS011;10678;51.002;4.786;2023-02-11T12:44:48;48.63;;;23.73;;
21038;SDS011;10678;51.002;4.786;2023-02-11T12:47:42;46.63;;;22.95;;
21038;SDS011;10678;51.002;4.786;2023-02-11T12:51:17;42.55;;;23.55;;
21038;SDS011;10678;51.002;4.786;2023-02-11T12:55:55;44.22;;;23.48;;
21038;SDS011;10678;51.002;4.786;2023-02-11T12:58:25;44.42;;;24.10;;
21038;SDS011;10678;51.002;4.786;2023-02-11T13:00:56;45.75;;;24.15;;
21038;SDS011;10678;51.002;4.786;2023-02-11T13:03:52;46.33;;;24.50;;
21038;SDS011;10678;51.002;4.786;2023-02-11T13:06:15;46.17;;;24.13;;
21038;SDS011;10678;51.002;4.786;2023-02-11T13:08:56;40.33;;;21.83;;
21038;SDS011;10678;51.002;4.786;2023-02-11T13:11:38;41.40;;;23.15;;
21038;SDS011;10678;51.002;4.786;2023-02-11T13:14:09;45.13;;;22.25;;
21038;SDS011;10678;51.002;4.786;2023-02-11T13:16:44;48.22;;;24.42;;
21038;SDS011;10678;51.002;4.786;2023-02-11T13:32:22;45.38;;;24.00;;
21038;SDS011;10678;51.002;4.786;2023-02-11T13:40:00;43.67;;;23.77;;
21038;SDS011;10678;51.002;4.786;2023-02-11T13:42:29;48.83;;;23.77;;
21038;SDS011;10678;51.002;4.786;2023-02-11T13:44:56;43.42;;;23.95;;
21038;SDS011;10678;51.002;4.786;2023-02-11T13:47:32;46.38;;;24.95;;
21038;SDS011;10678;51.002;4.786;2023-02-11T13:50:02;43.70;;;23.50;;
21038;SDS011;10678;51.002;4.786;2023-02-11T13:52:36;47.25;;;25.88;;
21038;SDS011;10678;51.002;4.786;2023-02-11T13:57:38;46.47;;;22.92;;
21038;SDS011;10678;51.002;4.786;2023-02-11T14:00:06;47.47;;;24.63;;
21038;SDS011;10678;51.002;4.786;2023-02-11T14:19:32;47.45;;;25.45;;
21038;SDS011;10678;51.002;4.786;2023-02-11T14:22:02;49.20;;;23.77;;
21038;SDS011;10678;51.002;4.786;2023-02-11T14:31:53;51.63;;;25.17;;
21038;SDS011;10678;51.002;4.786;2023-02-11T14:39:49;44.13;;;23.75;;
21038;SDS011;10678;51.002;4.786;2023-02-11T14:42:21;47.22;;;25.63;;
21038;SDS011;10678;51.002;4.786;2023-02-11T14:44:51;61.53;;;26.92;;
21038;SDS011;10678;51.002;4.786;2023-02-11T14:47:20;48.80;;;24.05;;
21038;SDS011;10678;51.002;4.786;2023-02-11T14:49:51;41.95;;;24.17;;
21038;SDS011;10678;51.002;4.786;2023-02-11T14:52:25;52.53;;;25.50;;
21038;SDS011;10678;51.002;4.786;2023-02-11T14:55:00;51.92;;;24.10;;
21038;SDS011;10678;51.002;4.786;2023-02-11T14:57:48;44.40;;;24.48;;
21038;SDS011;10678;51.002;4.786;2023-02-11T15:00:29;56.35;;;25.58;;
21038;SDS011;10678;51.002;4.786;2023-02-11T15:02:55;56.75;;;26.35;;
21038;SDS011;10678;51.002;4.786;2023-02-11T15:05:22;45.40;;;23.35;;
21038;SDS011;10678;51.002;4.786;2023-02-11T15:07:51;45.42;;;23.77;;
21038;SDS011;10678;51.002;4.786;2023-02-11T15:10:25;45.28;;;23.15;;
21038;SDS011;10678;51.002;4.786;2023-02-11T15:13:00;53.67;;;26.70;;
21038;SDS011;10678;51.002;4.786;2023-02-11T15:15:27;45.80;;;25.17;;
21038;SDS011;10678;51.002;4.786;2023-02-11T15:17:55;48.97;;;26.00;;
21038;SDS011;10678;51.002;4.786;2023-02-11T15:20:25;43.33;;;26.63;;
21038;SDS011;10678;51.002;4.786;2023-02-11T15:22:56;46.28;;;25.20;;
21038;SDS011;10678;51.002;4.786;2023-02-11T15:25:26;51.80;;;26.75;;
21038;SDS011;10678;51.002;4.786;2023-02-11T15:27:53;48.33;;;26.02;;
21038;SDS011;10678;51.002;4.786;2023-02-11T15:32:50;52.25;;;26.77;;
21038;SDS011;10678;51.002;4.786;2023-02-11T15:35:37;51.28;;;26.75;;
21038;SDS011;10678;51.002;4.786;2023-02-11T15:38:06;46.58;;;25.25;;
21038;SDS011;10678;51.002;4.786;2023-02-11T15:40:32;51.83;;;27.05;;
21038;SDS011;10678;51.002;4.786;2023-02-11T15:43:01;52.20;;;27.08;;
21038;SDS011;10678;51.002;4.786;2023-02-11T15:45:32;49.92;;;27.08;;
21038;SDS011;10678;51.002;4.786;2023-02-11T15:50:37;49.28;;;25.52;;
21038;SDS011;10678;51.002;4.786;2023-02-11T15:53:14;46.97;;;25.40;;
21038;SDS011;10678;51.002;4.786;2023-02-11T15:55:48;51.63;;;27.35;;
21038;SDS011;10678;51.002;4.786;2023-02-11T15:58:15;47.35;;;27.35;;
21038;SDS011;10678;51.002;4.786;2023-02-11T16:00:48;50.70;;;26.50;;
21038;SDS011;10678;51.002;4.786;2023-02-11T16:03:25;45.85;;;26.15;;
21038;SDS011;10678;51.002;4.786;2023-02-11T16:06:13;47.03;;;25.45;;
21038;SDS011;10678;51.002;4.786;2023-02-11T16:08:55;54.03;;;27.88;;
21038;SDS011;10678;51.002;4.786;2023-02-11T16:11:27;50.35;;;27.40;;
21038;SDS011;10678;51.002;4.786;2023-02-11T16:13:58;55.70;;;27.95;;
21038;SDS011;10678;51.002;4.786;2023-02-11T16:16:32;52.47;;;27.95;;
21038;SDS011;10678;51.002;4.786;2023-02-11T16:18:59;49.10;;;26.65;;
21038;SDS011;10678;51.002;4.786;2023-02-11T16:21:31;49.42;;;26.65;;
21038;SDS011;10678;51.002;4.786;2023-02-11T16:24:00;50.33;;;26.80;;
21038;SDS011;10678;51.002;4.786;2023-02-11T16:26:36;46.55;;;26.77;;
21038;SDS011;10678;51.002;4.786;2023-02-11T16:29:14;50.90;;;26.45;;
21038;SDS011;10678;51.002;4.786;2023-02-11T16:31:44;51.03;;;28.45;;
21038;SDS011;10678;51.002;4.786;2023-02-11T16:34:12;47.08;;;25.80;;
21038;SDS011;10678;51.002;4.786;2023-02-11T16:36:43;52.72;;;27.73;;
21038;SDS011;10678;51.002;4.786;2023-02-11T16:39:09;46.47;;;27.25;;
21038;SDS011;10678;51.002;4.786;2023-02-11T16:41:35;51.15;;;27.13;;
21038;SDS011;10678;51.002;4.786;2023-02-11T16:44:00;53.03;;;27.73;;
21038;SDS011;10678;51.002;4.786;2023-02-11T16:46:26;48.08;;;27.30;;
21038;SDS011;10678;51.002;4.786;2023-02-11T16:48:55;51.30;;;26.88;;
21038;SDS011;10678;51.002;4.786;2023-02-11T16:51:21;50.05;;;26.33;;
21038;SDS011;10678;51.002;4.786;2023-02-11T16:53:47;49.50;;;28.02;;
21038;SDS011;10678;51.002;4.786;2023-02-11T16:56:13;51.75;;;28.42;;
21038;SDS011;10678;51.002;4.786;2023-02-11T16:58:40;49.60;;;27.50;;
21038;SDS011;10678;51.002;4.786;2023-02-11T17:01:06;47.70;;;26.95;;
21038;SDS011;10678;51.002;4.786;2023-02-11T17:03:32;55.92;;;28.40;;
21038;SDS011;10678;51.002;4.786;2023-02-11T17:06:04;59.85;;;30.85;;
21038;SDS011;10678;51.002;4.786;2023-02-11T17:08:34;53.05;;;27.50;;